Aokimaru No.3 — JM6505 — position and weather

sailwx.info

Track history (hours):
 
Tides and Currents Weather Stations Pressure Air Temp Water Temp Dewpoint Dewpoint Depression Visibility Wind Speed Wind Dir Waves Ship Positions

Aokimaru No.3

Last reported at 2018-Jun-22 00:00 UTC. Time now 2018-Jun-22 00:01 UTC.
Position N 35°17' E 139°41'.

Length 71 m.

Type: Cargo ship. MMSI: 431600751.

Date/timePositionNaut miles runAvg speedWind from/ knotsBaromVisibWave heightAir tempDewpointWater temp
2018-Jun-22 00:00N 35°17' E 139°41'0 0.0
2018-Jun-21 22:47N 35°17' E 139°41'0 0.0
2018-Jun-20 23:12N 35°17' E 139°41'0 2.3
2018-Jun-20 23:01N 35°17' E 139°41'510.8
2018-Jun-20 22:30N 35°23' E 139°42'5 9.8
2018-Jun-20 22:00N 35°27' E 139°40'2 3.3
2018-Jun-20 21:30N 35°29' E 139°39'0 0.0
2018-Jun-20 21:01N 35°29' E 139°39'0 0.0
2018-Jun-20 20:30N 35°29' E 139°39'0 0.0
2018-Jun-20 20:00N 35°29' E 139°39'0 0.0
2018-Jun-20 19:29N 35°29' E 139°39'0 0.0
2018-Jun-20 19:00N 35°29' E 139°39'0 0.0
2018-Jun-20 18:30N 35°29' E 139°39'0 0.0
2018-Jun-20 18:00N 35°29' E 139°39'0 0.0
2018-Jun-20 17:30N 35°29' E 139°39'0 0.0
2018-Jun-20 17:00N 35°29' E 139°39'0 0.0
2018-Jun-20 16:30N 35°29' E 139°39'0 0.0
2018-Jun-20 16:00N 35°29' E 139°39'0 0.0
2018-Jun-20 15:30N 35°29' E 139°39'0 0.0
2018-Jun-20 15:00N 35°29' E 139°39'0 0.0
2018-Jun-20 14:30N 35°29' E 139°39'0 0.0
2018-Jun-20 14:00N 35°29' E 139°39'0 0.0
2018-Jun-20 13:30N 35°29' E 139°39'0 0.0
2018-Jun-20 13:00N 35°29' E 139°39'0 0.0
2018-Jun-20 12:30N 35°29' E 139°39'0 0.0
2018-Jun-20 11:59N 35°29' E 139°39'0 0.0
2018-Jun-20 11:31N 35°29' E 139°39'0 0.0
2018-Jun-20 11:01N 35°29' E 139°39'0 0.0
2018-Jun-20 10:30N 35°29' E 139°39'0 0.0
2018-Jun-20 10:00N 35°29' E 139°39'0 0.0
2018-Jun-20 09:30N 35°29' E 139°39'0 0.0
2018-Jun-20 09:00N 35°29' E 139°39'0 0.0
2018-Jun-20 08:31N 35°29' E 139°39'0 0.0
2018-Jun-20 08:00N 35°29' E 139°39'0 0.0
2018-Jun-20 07:30N 35°29' E 139°39'0 0.0
2018-Jun-20 07:00N 35°29' E 139°39'0 0.0
2018-Jun-20 06:30N 35°29' E 139°39'0 0.0
2018-Jun-20 06:00N 35°29' E 139°39'0 0.0
2018-Jun-20 05:31N 35°29' E 139°39'0 0.0
2018-Jun-20 05:00N 35°29' E 139°39'0 0.0
2018-Jun-20 04:29N 35°29' E 139°39'0 0.0
2018-Jun-20 04:00N 35°29' E 139°39'0 0.0
2018-Jun-20 03:30N 35°29' E 139°39'0 0.0
2018-Jun-20 03:00N 35°29' E 139°39'0 0.0
2018-Jun-20 02:30N 35°29' E 139°39'0 0.0
2018-Jun-20 02:00N 35°29' E 139°39'0 0.0
2018-Jun-20 01:29N 35°29' E 139°39'0 0.0
2018-Jun-20 01:01N 35°29' E 139°39'0 0.0
2018-Jun-20 00:30N 35°29' E 139°39'0 0.0
2018-Jun-19 23:59N 35°29' E 139°39'0 0.0
2018-Jun-19 23:30N 35°29' E 139°39'0 0.0
2018-Jun-19 23:00N 35°29' E 139°39'3 6.0
2018-Jun-19 22:30N 35°27' E 139°42'1 1.3
2018-Jun-19 22:00N 35°27' E 139°42'0 0.0
2018-Jun-19 21:30N 35°27' E 139°42'0 0.0
2018-Jun-19 21:01N 35°27' E 139°42'0 0.1
2018-Jun-19 20:31N 35°27' E 139°42'0 0.1
2018-Jun-19 20:00N 35°27' E 139°42'0 0.0
2018-Jun-19 19:30N 35°27' E 139°42'0 0.0
2018-Jun-19 19:00N 35°27' E 139°42'0 0.0
2018-Jun-19 18:30N 35°27' E 139°42'0 0.0
2018-Jun-19 18:00N 35°27' E 139°42'0 0.0
2018-Jun-19 17:31N 35°27' E 139°42'0 0.0
2018-Jun-19 17:01N 35°27' E 139°42'0 0.0
2018-Jun-19 16:30N 35°27' E 139°42'0 0.0
2018-Jun-19 16:01N 35°27' E 139°42'0 0.1
2018-Jun-19 15:31N 35°27' E 139°42'0 0.0
2018-Jun-19 14:59N 35°27' E 139°42'0 0.1
2018-Jun-19 14:30N 35°27' E 139°42'0 0.0
2018-Jun-19 14:00N 35°27' E 139°42'0 0.0
2018-Jun-19 13:31N 35°27' E 139°42'0 0.0
2018-Jun-19 13:00N 35°27' E 139°42'0 0.0
2018-Jun-19 12:30N 35°27' E 139°42'0 0.0
2018-Jun-19 12:00N 35°27' E 139°42'0 0.0
2018-Jun-19 11:30N 35°27' E 139°42'0 0.0
2018-Jun-19 11:00N 35°27' E 139°42'0 0.1
2018-Jun-19 10:31N 35°27' E 139°42'0 0.0
2018-Jun-19 10:01N 35°27' E 139°42'0 0.1
2018-Jun-19 09:30N 35°27' E 139°42'0 0.1
2018-Jun-19 09:00N 35°27' E 139°42'0 0.1
2018-Jun-19 08:31N 35°27' E 139°42'0 0.0
2018-Jun-19 08:01N 35°27' E 139°42'0 0.0
2018-Jun-19 07:30N 35°27' E 139°42'0 0.0
2018-Jun-19 07:00N 35°27' E 139°42'0 0.1
2018-Jun-19 06:30N 35°27' E 139°42'0 0.0
2018-Jun-19 06:00N 35°27' E 139°42'2 4.2
2018-Jun-19 05:30N 35°27' E 139°45'611.4
2018-Jun-19 05:00N 35°31' E 139°51'810.9
2018-Jun-19 04:15N 35°37' E 139°57'1 0.1
2018-Jun-18 07:48N 35°38' E 139°58'0 1.5
2018-Jun-18 07:30N 35°38' E 139°58'0 0.0
2018-Jun-18 07:00N 35°38' E 139°58'2 2.2
2018-Jun-18 06:15N 35°36' E 139°57'312.8
2018-Jun-18 06:00N 35°34' E 139°54'612.5
2018-Jun-18 05:31N 35°30' E 139°48'2 5.0
2018-Jun-18 05:01N 35°31' E 139°45'0 0.0
2018-Jun-18 04:30N 35°31' E 139°45'0 0.0
2018-Jun-18 04:01N 35°31' E 139°45'0 0.0
2018-Jun-18 03:30N 35°31' E 139°45'0 0.0
2018-Jun-18 03:00N 35°31' E 139°45'0 0.0
2018-Jun-18 02:30N 35°31' E 139°45'0 0.0
2018-Jun-18 02:00N 35°31' E 139°45'0 0.0
2018-Jun-18 01:30N 35°31' E 139°45'0 0.0
2018-Jun-18 01:01N 35°31' E 139°45'0 0.3
2018-Jun-18 00:30N 35°30' E 139°45'3 6.8
2018-Jun-18 00:00N 35°28' E 139°48'510.9
2018-Jun-17 23:30N 35°23' E 139°46'510.5
2018-Jun-17 23:00N 35°18' E 139°45'710.7
2018-Jun-17 22:22N 35°11' E 139°46'  
2018-Jun-12 03:26N 33°50' E 135°03'512.5
2018-Jun-12 03:00N 33°55' E 135°01'612.4
2018-Jun-12 02:30N 34°01' E 134°59'612.6
2018-Jun-12 02:00N 34°08' E 134°59'713.3
2018-Jun-12 01:30N 34°14' E 134°59'713.7
2018-Jun-12 01:00N 34°21' E 135°00'612.7
2018-Jun-12 00:30N 34°27' E 135°02'611.9
2018-Jun-12 00:00N 34°33' E 135°04'  
Track history (hours):
 
Tides and Currents Weather Stations Pressure Air Temp Water Temp Dewpoint Dewpoint Depression Visibility Wind Speed Wind Dir Waves Ship Positions

Aokimaru No.3

Last reported at 2018-Jun-22 00:00 UTC. Time now 2018-Jun-22 00:01 UTC.
Position N 35°17' E 139°41'.

Length 71 m.

Type: Cargo ship. MMSI: 431600751.

Date/timePositionNaut miles runAvg speedWind from/ knotsBaromVisibWave heightAir tempDewpointWater temp
2018-Jun-22 00:00N 35°17' E 139°41'0 0.0
2018-Jun-21 22:47N 35°17' E 139°41'0 0.0
2018-Jun-20 23:12N 35°17' E 139°41'0 2.3
2018-Jun-20 23:01N 35°17' E 139°41'510.8
2018-Jun-20 22:30N 35°23' E 139°42'5 9.8
2018-Jun-20 22:00N 35°27' E 139°40'2 3.3
2018-Jun-20 21:30N 35°29' E 139°39'0 0.0
2018-Jun-20 21:01N 35°29' E 139°39'0 0.0
2018-Jun-20 20:30N 35°29' E 139°39'0 0.0
2018-Jun-20 20:00N 35°29' E 139°39'0 0.0
2018-Jun-20 19:29N 35°29' E 139°39'0 0.0
2018-Jun-20 19:00N 35°29' E 139°39'0 0.0
2018-Jun-20 18:30N 35°29' E 139°39'0 0.0
2018-Jun-20 18:00N 35°29' E 139°39'0 0.0
2018-Jun-20 17:30N 35°29' E 139°39'0 0.0
2018-Jun-20 17:00N 35°29' E 139°39'0 0.0
2018-Jun-20 16:30N 35°29' E 139°39'0 0.0
2018-Jun-20 16:00N 35°29' E 139°39'0 0.0
2018-Jun-20 15:30N 35°29' E 139°39'0 0.0
2018-Jun-20 15:00N 35°29' E 139°39'0 0.0
2018-Jun-20 14:30N 35°29' E 139°39'0 0.0
2018-Jun-20 14:00N 35°29' E 139°39'0 0.0
2018-Jun-20 13:30N 35°29' E 139°39'0 0.0
2018-Jun-20 13:00N 35°29' E 139°39'0 0.0
2018-Jun-20 12:30N 35°29' E 139°39'0 0.0
2018-Jun-20 11:59N 35°29' E 139°39'0 0.0
2018-Jun-20 11:31N 35°29' E 139°39'0 0.0
2018-Jun-20 11:01N 35°29' E 139°39'0 0.0
2018-Jun-20 10:30N 35°29' E 139°39'0 0.0
2018-Jun-20 10:00N 35°29' E 139°39'0 0.0
2018-Jun-20 09:30N 35°29' E 139°39'0 0.0
2018-Jun-20 09:00N 35°29' E 139°39'0 0.0
2018-Jun-20 08:31N 35°29' E 139°39'0 0.0
2018-Jun-20 08:00N 35°29' E 139°39'0 0.0
2018-Jun-20 07:30N 35°29' E 139°39'0 0.0
2018-Jun-20 07:00N 35°29' E 139°39'0 0.0
2018-Jun-20 06:30N 35°29' E 139°39'0 0.0
2018-Jun-20 06:00N 35°29' E 139°39'0 0.0
2018-Jun-20 05:31N 35°29' E 139°39'0 0.0
2018-Jun-20 05:00N 35°29' E 139°39'0 0.0
2018-Jun-20 04:29N 35°29' E 139°39'0 0.0
2018-Jun-20 04:00N 35°29' E 139°39'0 0.0
2018-Jun-20 03:30N 35°29' E 139°39'0 0.0
2018-Jun-20 03:00N 35°29' E 139°39'0 0.0
2018-Jun-20 02:30N 35°29' E 139°39'0 0.0
2018-Jun-20 02:00N 35°29' E 139°39'0 0.0
2018-Jun-20 01:29N 35°29' E 139°39'0 0.0
2018-Jun-20 01:01N 35°29' E 139°39'0 0.0
2018-Jun-20 00:30N 35°29' E 139°39'0 0.0
2018-Jun-19 23:59N 35°29' E 139°39'0 0.0
2018-Jun-19 23:30N 35°29' E 139°39'0 0.0
2018-Jun-19 23:00N 35°29' E 139°39'3 6.0
2018-Jun-19 22:30N 35°27' E 139°42'1 1.3
2018-Jun-19 22:00N 35°27' E 139°42'0 0.0
2018-Jun-19 21:30N 35°27' E 139°42'0 0.0
2018-Jun-19 21:01N 35°27' E 139°42'0 0.1
2018-Jun-19 20:31N 35°27' E 139°42'0 0.1
2018-Jun-19 20:00N 35°27' E 139°42'0 0.0
2018-Jun-19 19:30N 35°27' E 139°42'0 0.0
2018-Jun-19 19:00N 35°27' E 139°42'0 0.0
2018-Jun-19 18:30N 35°27' E 139°42'0 0.0
2018-Jun-19 18:00N 35°27' E 139°42'0 0.0
2018-Jun-19 17:31N 35°27' E 139°42'0 0.0
2018-Jun-19 17:01N 35°27' E 139°42'0 0.0
2018-Jun-19 16:30N 35°27' E 139°42'0 0.0
2018-Jun-19 16:01N 35°27' E 139°42'0 0.1
2018-Jun-19 15:31N 35°27' E 139°42'0 0.0
2018-Jun-19 14:59N 35°27' E 139°42'0 0.1
2018-Jun-19 14:30N 35°27' E 139°42'0 0.0
2018-Jun-19 14:00N 35°27' E 139°42'0 0.0
2018-Jun-19 13:31N 35°27' E 139°42'0 0.0
2018-Jun-19 13:00N 35°27' E 139°42'0 0.0
2018-Jun-19 12:30N 35°27' E 139°42'0 0.0
2018-Jun-19 12:00N 35°27' E 139°42'0 0.0
2018-Jun-19 11:30N 35°27' E 139°42'0 0.0
2018-Jun-19 11:00N 35°27' E 139°42'0 0.1
2018-Jun-19 10:31N 35°27' E 139°42'0 0.0
2018-Jun-19 10:01N 35°27' E 139°42'0 0.1
2018-Jun-19 09:30N 35°27' E 139°42'0 0.1
2018-Jun-19 09:00N 35°27' E 139°42'0 0.1
2018-Jun-19 08:31N 35°27' E 139°42'0 0.0
2018-Jun-19 08:01N 35°27' E 139°42'0 0.0
2018-Jun-19 07:30N 35°27' E 139°42'0 0.0
2018-Jun-19 07:00N 35°27' E 139°42'0 0.1
2018-Jun-19 06:30N 35°27' E 139°42'0 0.0
2018-Jun-19 06:00N 35°27' E 139°42'2 4.2
2018-Jun-19 05:30N 35°27' E 139°45'611.4
2018-Jun-19 05:00N 35°31' E 139°51'810.9
2018-Jun-19 04:15N 35°37' E 139°57'1 0.1
2018-Jun-18 07:48N 35°38' E 139°58'0 1.5
2018-Jun-18 07:30N 35°38' E 139°58'0 0.0
2018-Jun-18 07:00N 35°38' E 139°58'2 2.2
2018-Jun-18 06:15N 35°36' E 139°57'312.8
2018-Jun-18 06:00N 35°34' E 139°54'612.5
2018-Jun-18 05:31N 35°30' E 139°48'2 5.0
2018-Jun-18 05:01N 35°31' E 139°45'0 0.0
2018-Jun-18 04:30N 35°31' E 139°45'0 0.0
2018-Jun-18 04:01N 35°31' E 139°45'0 0.0
2018-Jun-18 03:30N 35°31' E 139°45'0 0.0
2018-Jun-18 03:00N 35°31' E 139°45'0 0.0
2018-Jun-18 02:30N 35°31' E 139°45'0 0.0
2018-Jun-18 02:00N 35°31' E 139°45'0 0.0
2018-Jun-18 01:30N 35°31' E 139°45'0 0.0
2018-Jun-18 01:01N 35°31' E 139°45'0 0.3
2018-Jun-18 00:30N 35°30' E 139°45'3 6.8
2018-Jun-18 00:00N 35°28' E 139°48'510.9
2018-Jun-17 23:30N 35°23' E 139°46'510.5
2018-Jun-17 23:00N 35°18' E 139°45'710.7
2018-Jun-17 22:22N 35°11' E 139°46'  
2018-Jun-12 03:26N 33°50' E 135°03'512.5
2018-Jun-12 03:00N 33°55' E 135°01'612.4
2018-Jun-12 02:30N 34°01' E 134°59'612.6
2018-Jun-12 02:00N 34°08' E 134°59'713.3
2018-Jun-12 01:30N 34°14' E 134°59'713.7
2018-Jun-12 01:00N 34°21' E 135°00'612.7
2018-Jun-12 00:30N 34°27' E 135°02'611.9
2018-Jun-12 00:00N 34°33' E 135°04'  

Dump ship's entire track history